Time;durP1;ratioP1;P1;durP2;ratioP2;P2;SDS_P1;SDS_P2;PMS_P1;PMS_P2;Temp;Humidity;BMP_temperature;BMP_pressure;BME280_temperature;BME280_humidity;BME280_pressure;Samples;Min_cycle;Max_cycle;Signal;HPM_P1;HPM_P2
2021/05/07 00:01:53;;;;;;;1.27;0.80;;;;;;;4.79;79.83;94673.78;5071608;28;20223;-74
2021/05/07 00:04:19;;;;;;;0.70;0.70;;;;;;;4.74;79.85;94681.88;5086585;28;20185;-75
2021/05/07 00:06:44;;;;;;;1.00;0.90;;;;;;;4.75;80.61;94693.78;5070443;28;20242;-74
2021/05/07 00:09:09;;;;;;;1.20;1.10;;;;;;;4.81;80.27;94695.03;5070149;28;20181;-75
2021/05/07 00:11:35;;;;;;;1.00;1.00;;;;;;;4.68;80.84;94692.72;5070380;28;20208;-74
2021/05/07 00:14:01;;;;;;;1.07;1.00;;;;;;;4.66;81.47;94694.59;5087038;28;20604;-74
2021/05/07 00:16:27;;;;;;;2.20;1.00;;;;;;;4.67;81.35;94696.22;5070948;28;20193;-74
2021/05/07 00:18:53;;;;;;;0.93;0.93;;;;;;;4.70;80.69;94701.09;5070307;28;20206;-74
2021/05/07 00:21:18;;;;;;;1.10;1.00;;;;;;;4.55;81.12;94710.94;5070323;28;20199;-74
2021/05/07 00:23:44;;;;;;;0.80;0.80;;;;;;;4.59;80.54;94701.19;5071570;28;20173;-74
2021/05/07 00:26:09;;;;;;;1.23;0.70;;;;;;;4.55;80.25;94713.50;5086543;28;20228;-74
2021/05/07 00:28:37;;;;;;;1.13;0.73;;;;;;;4.52;80.41;94726.63;5070075;28;20177;-74
2021/05/07 00:31:02;;;;;;;1.03;0.73;;;;;;;4.47;80.53;94728.78;5070083;28;20275;-75
2021/05/07 00:33:28;;;;;;;1.13;0.90;;;;;;;4.43;80.68;94727.44;5071337;28;20177;-74
2021/05/07 00:35:53;;;;;;;0.93;0.87;;;;;;;4.46;80.35;94739.19;5069253;28;20222;-74
2021/05/07 00:38:18;;;;;;;1.07;0.80;;;;;;;4.45;80.38;94732.44;5069988;28;20640;-74
2021/05/07 00:40:44;;;;;;;0.90;0.87;;;;;;;4.45;80.46;94722.97;5086789;28;20612;-74
2021/05/07 00:43:09;;;;;;;1.10;1.00;;;;;;;4.43;80.83;94729.19;5086810;28;20177;-74
2021/05/07 00:45:34;;;;;;;1.37;1.07;;;;;;;4.45;80.71;94737.56;5069332;28;20555;-74
2021/05/07 00:48:06;;;;;;;1.17;1.07;;;;;;;4.40;81.34;94744.84;5069984;28;20201;-74
2021/05/07 00:50:33;;;;;;;1.73;0.97;;;;;;;4.37;81.31;94733.06;5069839;28;20630;-75
2021/05/07 00:52:59;;;;;;;1.70;1.23;;;;;;;4.37;81.60;94739.97;5069805;28;20270;-75
2021/05/07 00:55:28;;;;;;;0.93;0.93;;;;;;;4.28;81.55;94739.00;5069596;28;20230;-74
2021/05/07 00:57:54;;;;;;;3.00;1.10;;;;;;;4.28;82.14;94745.91;5071066;28;20280;-75
2021/05/07 01:00:21;;;;;;;1.10;1.00;;;;;;;4.31;81.80;94740.47;5069858;28;20677;-74
2021/05/07 01:02:46;;;;;;;1.50;1.30;;;;;;;4.34;81.90;94750.53;5070012;28;20548;-74
2021/05/07 01:05:12;;;;;;;1.93;1.27;;;;;;;4.31;82.23;94748.19;5072549;28;20194;-74
2021/05/07 01:07:38;;;;;;;0.90;0.90;;;;;;;4.23;82.67;94754.78;5073585;28;20197;-74
2021/05/07 01:10:08;;;;;;;1.63;1.53;;;;;;;4.38;82.29;94747.56;5073475;28;20242;-74
2021/05/07 01:12:38;;;;;;;1.70;1.40;;;;;;;4.29;82.73;94753.47;5073606;28;20220;-74
2021/05/07 01:15:21;;;;;;;1.50;1.40;;;;;;;4.26;82.87;94751.97;5073151;28;20226;-74
2021/05/07 01:17:48;;;;;;;1.40;1.30;;;;;;;4.25;83.39;94755.50;5073585;28;20201;-74
2021/05/07 01:20:20;;;;;;;2.70;1.57;;;;;;;4.23;83.64;94749.66;5073385;28;20173;-74
2021/05/07 01:22:50;;;;;;;1.70;1.60;;;;;;;4.22;83.43;94748.03;5074977;28;20184;-74
2021/05/07 01:25:18;;;;;;;1.50;1.40;;;;;;;4.22;83.82;94747.22;5056164;28;20177;-75
2021/05/07 01:27:45;;;;;;;3.87;1.70;;;;;;;4.20;83.64;94755.06;5073481;28;20195;-74
2021/05/07 01:30:12;;;;;;;2.90;1.50;;;;;;;4.11;84.39;94760.97;5073301;28;20275;-75
2021/05/07 01:32:38;;;;;;;1.53;1.40;;;;;;;4.13;84.38;94753.13;5074396;28;20637;-74
2021/05/07 01:35:07;;;;;;;1.97;1.77;;;;;;;4.11;84.48;94755.00;5072798;28;20204;-74
2021/05/07 01:37:32;;;;;;;1.80;1.60;;;;;;;4.12;84.77;94757.44;5074450;28;20226;-74
2021/05/07 01:39:58;;;;;;;2.80;2.07;;;;;;;4.13;84.89;94764.22;5073294;28;20181;-74
2021/05/07 01:42:23;;;;;;;1.83;1.60;;;;;;;4.13;85.05;94758.25;5074474;28;20248;-74
2021/05/07 01:44:48;;;;;;;2.00;1.73;;;;;;;4.07;85.47;94754.47;5072484;28;20526;-74
2021/05/07 01:47:14;;;;;;;1.83;1.73;;;;;;;4.11;85.31;94745.53;5074109;28;20262;-74
2021/05/07 01:49:39;;;;;;;2.40;2.20;;;;;;;4.07;85.60;94745.94;5073109;28;20172;-74
2021/05/07 01:52:05;;;;;;;3.50;2.20;;;;;;;4.07;85.57;94744.19;5072934;28;20255;-75
2021/05/07 01:54:30;;;;;;;2.50;2.00;;;;;;;4.07;85.64;94748.50;5072256;28;20201;-74
2021/05/07 01:56:55;;;;;;;2.13;1.93;;;;;;;4.13;85.04;94753.94;5072833;28;20251;-74
2021/05/07 01:59:20;;;;;;;1.90;1.80;;;;;;;4.02;85.27;94746.31;5072886;28;20177;-74
2021/05/07 02:01:46;;;;;;;2.30;2.03;;;;;;;4.02;85.42;94751.44;5072695;28;20201;-74
2021/05/07 02:04:11;;;;;;;2.47;2.00;;;;;;;3.99;85.74;94764.56;5073002;28;20177;-74
2021/05/07 02:06:36;;;;;;;2.20;2.00;;;;;;;3.98;85.46;94766.31;5072176;28;20209;-74
2021/05/07 02:09:02;;;;;;;2.13;1.90;;;;;;;4.01;85.60;94749.81;5072293;28;20192;-74
2021/05/07 02:11:27;;;;;;;1.90;1.80;;;;;;;4.01;85.32;94749.81;5073913;28;20209;-74
2021/05/07 02:13:52;;;;;;;1.83;1.70;;;;;;;4.06;85.00;94752.81;5072469;28;20698;-74
2021/05/07 02:16:18;;;;;;;1.77;1.67;;;;;;;3.98;84.97;94750.91;5071055;28;20197;-74
2021/05/07 02:18:43;;;;;;;1.83;1.67;;;;;;;3.96;84.85;94757.09;5073771;28;20268;-74
2021/05/07 02:21:11;;;;;;;1.63;1.53;;;;;;;3.91;85.00;94749.78;5072417;28;20549;-74
2021/05/07 02:23:36;;;;;;;1.80;1.70;;;;;;;3.85;85.47;94740.00;5072588;28;20518;-74
2021/05/07 02:26:01;;;;;;;2.27;1.53;;;;;;;3.78;85.80;94746.56;5071788;28;20188;-74
2021/05/07 02:28:26;;;;;;;1.70;1.50;;;;;;;3.85;85.14;94750.28;5072338;28;20189;-74
2021/05/07 02:30:52;;;;;;;1.50;1.40;;;;;;;3.88;85.46;94749.19;5073271;28;20220;-74
2021/05/07 02:33:17;;;;;;;2.07;1.53;;;;;;;3.86;85.68;94754.47;5073644;28;20169;-74
2021/05/07 02:35:42;;;;;;;1.80;1.70;;;;;;;3.86;84.96;94759.59;5071629;28;20209;-74
2021/05/07 02:38:08;;;;;;;2.47;1.53;;;;;;;3.89;85.18;94755.97;5073343;28;20207;-75
2021/05/07 02:40:33;;;;;;;2.50;2.00;;;;;;;3.85;84.85;94759.72;5072197;28;20178;-74
2021/05/07 02:42:58;;;;;;;2.67;2.23;;;;;;;3.87;85.19;94770.69;5073688;28;20177;-74
2021/05/07 02:45:24;;;;;;;2.67;2.47;;;;;;;3.91;84.95;94759.22;5071334;28;20194;-74
2021/05/07 02:47:49;;;;;;;2.63;2.00;;;;;;;3.93;84.97;94772.75;5071887;28;20226;-74
2021/05/07 02:50:14;;;;;;;3.10;2.17;;;;;;;3.85;85.15;94770.00;5073272;28;20184;-74
2021/05/07 02:52:40;;;;;;;2.30;2.10;;;;;;;3.82;85.11;94776.22;5073190;28;20642;-74
2021/05/07 02:55:07;;;;;;;3.03;2.30;;;;;;;3.78;85.76;94779.13;5071071;28;20245;-74
2021/05/07 02:57:32;;;;;;;2.43;2.23;;;;;;;3.76;85.75;94783.59;5071679;28;20201;-74
2021/05/07 02:59:58;;;;;;;3.00;2.70;;;;;;;3.75;85.81;94775.06;5071739;28;20626;-74
2021/05/07 03:02:23;;;;;;;4.40;2.60;;;;;;;3.75;86.11;94787.09;5073024;28;20173;-74
2021/05/07 03:04:48;;;;;;;6.47;3.27;;;;;;;3.72;85.98;94779.66;5071037;28;20185;-74
2021/05/07 03:07:14;;;;;;;4.43;2.87;;;;;;;3.76;86.00;94784.41;5071457;28;20215;-74
2021/05/07 03:09:39;;;;;;;2.80;2.60;;;;;;;3.84;85.51;94789.72;5071095;28;20235;-73
2021/05/07 03:12:05;;;;;;;3.20;2.33;;;;;;;3.73;85.27;94791.56;5072639;28;20236;-74
2021/05/07 03:14:30;;;;;;;3.13;2.60;;;;;;;3.68;85.39;94784.22;5071001;28;20197;-74
2021/05/07 03:16:55;;;;;;;3.77;2.57;;;;;;;3.75;85.59;94792.25;5071354;28;20236;-73
2021/05/07 03:19:20;;;;;;;2.40;2.20;;;;;;;3.74;85.60;94798.31;5071404;28;20277;-74
2021/05/07 03:21:46;;;;;;;3.00;2.80;;;;;;;3.69;85.30;94802.06;5072601;28;20184;-74
2021/05/07 03:24:15;;;;;;;3.10;2.80;;;;;;;3.68;85.89;94804.75;5072474;28;20216;-73
2021/05/07 03:26:41;;;;;;;2.70;2.47;;;;;;;3.61;85.52;94809.56;5070959;28;20196;-74
2021/05/07 03:29:07;;;;;;;2.57;2.37;;;;;;;3.67;85.80;94808.25;5072376;28;20517;-75
2021/05/07 03:31:34;;;;;;;2.83;2.53;;;;;;;3.65;85.87;94805.81;5072143;28;20212;-74
2021/05/07 03:34:00;;;;;;;2.97;2.67;;;;;;;3.59;85.71;94806.31;5072306;28;20238;-74
2021/05/07 03:36:25;;;;;;;3.27;2.97;;;;;;;3.67;85.99;94814.22;5070438;28;20702;-74
2021/05/07 03:38:50;;;;;;;3.40;2.67;;;;;;;3.60;86.28;94819.97;5070987;28;20205;-74
2021/05/07 03:41:15;;;;;;;2.47;2.27;;;;;;;3.72;86.07;94821.56;5070848;28;20181;-74
2021/05/07 03:43:41;;;;;;;2.20;2.00;;;;;;;3.62;85.11;94833.47;5072455;28;20187;-74
2021/05/07 03:46:06;;;;;;;2.67;2.17;;;;;;;3.62;85.03;94830.91;5070340;28;20182;-74
2021/05/07 03:48:31;;;;;;;1.90;1.80;;;;;;;3.59;85.33;94831.97;5070773;28;20571;-74
2021/05/07 03:50:57;;;;;;;2.23;2.03;;;;;;;3.59;85.04;94836.31;5071839;28;20181;-74
2021/05/07 03:53:23;;;;;;;2.00;1.80;;;;;;;3.58;85.28;94839.81;5070921;28;20181;-74
2021/05/07 03:55:49;;;;;;;2.23;2.00;;;;;;;3.53;85.25;94847.88;5070088;28;20555;-74
2021/05/07 03:58:15;;;;;;;2.10;1.90;;;;;;;3.46;85.39;94846.75;5070546;28;20280;-74
2021/05/07 04:00:40;;;;;;;1.63;1.53;;;;;;;3.54;85.20;94857.22;5070552;28;20263;-74
2021/05/07 04:03:06;;;;;;;2.00;1.50;;;;;;;3.46;85.40;94846.75;5071803;28;20230;-74
2021/05/07 04:05:31;;;;;;;1.73;1.00;;;;;;;3.45;85.49;94852.00;5069789;28;20230;-74
2021/05/07 04:10:28;;;;;;;1.00;1.00;;;;;;;3.44;84.43;94858.03;5070705;28;20193;-74
2021/05/07 04:15:18;;;;;;;1.03;0.93;;;;;;;3.37;84.46;94868.00;5070990;28;20517;-74
2021/05/07 04:17:44;;;;;;;0.70;0.70;;;;;;;3.33;84.66;94861.47;5070259;28;20205;-74
2021/05/07 04:20:10;;;;;;;1.33;0.90;;;;;;;3.34;84.75;94861.34;5070118;28;20240;-74
2021/05/07 04:22:37;;;;;;;0.70;0.70;;;;;;;3.24;84.16;94873.25;5070260;28;20177;-74
2021/05/07 04:25:06;;;;;;;1.00;0.80;;;;;;;3.35;84.27;94878.38;5053101;28;20215;-74
2021/05/07 04:27:31;;;;;;;1.57;0.80;;;;;;;3.35;84.18;94888.63;5071383;28;20204;-74
2021/05/07 04:29:57;;;;;;;0.73;0.73;;;;;;;3.33;84.41;94887.13;5070030;28;20204;-74
2021/05/07 04:32:22;;;;;;;1.63;1.00;;;;;;;3.33;84.77;94897.41;5070462;28;20281;-74
2021/05/07 04:34:47;;;;;;;1.13;0.80;;;;;;;3.29;84.92;94890.88;5069479;28;20184;-74
2021/05/07 04:37:13;;;;;;;1.00;0.87;;;;;;;3.30;84.92;94902.78;5070171;28;20453;-74
2021/05/07 04:39:38;;;;;;;0.90;0.70;;;;;;;3.34;84.61;94904.97;5069648;28;20180;-74
2021/05/07 04:42:04;;;;;;;3.07;1.13;;;;;;;3.43;84.68;94911.13;5069995;28;20173;-75
2021/05/07 04:44:29;;;;;;;1.77;0.97;;;;;;;3.37;84.71;94911.63;5070622;28;20192;-75
2021/05/07 04:46:54;;;;;;;1.40;1.30;;;;;;;3.35;85.13;94916.03;5070023;28;20267;-74
2021/05/07 04:49:20;;;;;;;2.03;1.83;;;;;;;3.37;84.71;94919.34;5069829;28;20656;-74
2021/05/07 04:51:45;;;;;;;2.10;1.73;;;;;;;3.38;84.95;94926.09;5071163;28;20204;-74
2021/05/07 04:54:10;;;;;;;3.10;2.70;;;;;;;3.45;84.37;94922.13;5071098;28;20192;-74
2021/05/07 04:56:36;;;;;;;4.97;2.90;;;;;;;3.43;84.94;94918.84;5069268;28;20602;-74
2021/05/07 04:59:01;;;;;;;4.53;3.10;;;;;;;3.43;84.58;94921.41;5071149;28;20185;-74
2021/05/07 05:01:26;;;;;;;3.77;3.03;;;;;;;3.44;84.72;94928.16;5070882;28;20218;-75
2021/05/07 05:03:52;;;;;;;3.83;2.87;;;;;;;3.50;84.45;94930.25;5069647;28;20668;-75
2021/05/07 05:06:17;;;;;;;6.33;4.10;;;;;;;3.46;83.42;94934.03;5070170;28;20200;-75
2021/05/07 05:08:42;;;;;;;4.87;3.93;;;;;;;3.50;83.54;94950.81;5050158;28;20304;-73
2021/05/07 05:11:08;;;;;;;4.93;4.00;;;;;;;3.47;83.45;94945.09;5064026;28;20439;-75
2021/05/07 05:13:33;;;;;;;6.00;4.60;;;;;;;3.41;83.91;94944.63;5070622;28;20201;-75
2021/05/07 05:15:58;;;;;;;5.73;4.63;;;;;;;3.43;84.16;94941.94;5052071;28;20651;-75
2021/05/07 05:18:32;;;;;;;5.50;4.30;;;;;;;3.40;84.33;94952.44;5069229;28;20179;-75
2021/05/07 05:21:02;;;;;;;8.03;5.30;;;;;;;3.47;84.28;94956.19;5073094;28;20173;-74
2021/05/07 05:23:28;;;;;;;9.07;6.00;;;;;;;3.58;84.06;94945.06;5078654;28;20190;-75
2021/05/07 05:25:54;;;;;;;6.67;5.30;;;;;;;3.55;84.11;94953.84;5078657;28;20187;-74
2021/05/07 05:28:19;;;;;;;8.23;6.40;;;;;;;3.62;84.19;94949.88;5068372;28;20185;-74
2021/05/07 05:30:45;;;;;;;11.00;5.93;;;;;;;3.59;84.47;94952.66;5072928;28;20292;-74
2021/05/07 05:33:10;;;;;;;9.80;6.90;;;;;;;3.78;83.83;94964.06;5078520;28;20222;-74
2021/05/07 05:35:36;;;;;;;8.30;6.63;;;;;;;3.78;83.63;94967.44;5074516;28;20191;-74
2021/05/07 05:38:02;;;;;;;9.07;7.10;;;;;;;3.80;83.36;94977.56;5082028;28;20269;-75
2021/05/07 05:40:27;;;;;;;10.57;7.50;;;;;;;3.82;83.57;94981.69;5086547;28;20192;-73
2021/05/07 05:42:52;;;;;;;10.30;7.33;;;;;;;3.85;83.27;94978.88;5072123;28;20196;-74
2021/05/07 05:45:18;;;;;;;9.67;7.63;;;;;;;3.87;83.42;94983.88;5082751;28;20263;-74
2021/05/07 05:47:43;;;;;;;9.37;7.03;;;;;;;3.90;83.34;94991.34;5081663;28;20671;-75
2021/05/07 05:50:09;;;;;;;9.60;7.20;;;;;;;3.96;82.82;94996.00;5080872;28;20702;-75
2021/05/07 05:52:35;;;;;;;8.20;7.27;;;;;;;4.21;83.01;95005.16;5086458;28;20208;-75
2021/05/07 05:55:01;;;;;;;12.00;7.73;;;;;;;4.21;81.98;95003.41;5083375;28;20253;-74
2021/05/07 05:57:26;;;;;;;9.70;7.50;;;;;;;4.08;81.32;95007.88;5064873;28;20206;-74
2021/05/07 05:59:52;;;;;;;7.17;6.37;;;;;;;4.13;81.26;94998.03;5076531;28;20188;-73
2021/05/07 06:02:17;;;;;;;9.67;7.87;;;;;;;4.47;80.66;94992.78;5086109;28;20567;-75
2021/05/07 06:04:43;;;;;;;9.23;6.70;;;;;;;4.65;79.72;95003.34;5082483;28;20185;-74
2021/05/07 06:07:08;;;;;;;8.30;6.73;;;;;;;4.74;80.32;95000.00;5087942;28;20291;-74
2021/05/07 06:09:33;;;;;;;10.83;7.33;;;;;;;4.81;79.48;95004.53;5079245;28;20193;-74
2021/05/07 06:11:58;;;;;;;9.00;7.53;;;;;;;4.80;80.05;94995.19;5080125;28;20209;-75
2021/05/07 06:14:24;;;;;;;8.90;7.23;;;;;;;4.76;78.65;95004.06;5086956;28;20188;-74
2021/05/07 06:16:49;;;;;;;8.13;6.80;;;;;;;4.70;79.09;95003.78;5081968;28;20210;-75
2021/05/07 06:19:14;;;;;;;8.80;7.37;;;;;;;4.60;79.55;95003.72;5087728;28;20184;-74
2021/05/07 06:21:40;;;;;;;8.00;6.77;;;;;;;4.49;79.94;95011.47;5078855;28;20684;-74
2021/05/07 06:24:05;;;;;;;10.87;7.60;;;;;;;4.36;80.43;95015.97;5082560;28;20269;-73
2021/05/07 06:26:31;;;;;;;10.37;7.40;;;;;;;4.24;80.64;95018.59;5084852;28;20350;-73
2021/05/07 06:28:56;;;;;;;10.20;8.00;;;;;;;4.15;81.03;95018.47;5088706;28;20176;-73
2021/05/07 06:31:21;;;;;;;9.97;7.80;;;;;;;3.95;80.95;95017.47;5075503;28;20284;-73
2021/05/07 06:33:47;;;;;;;9.07;8.03;;;;;;;4.00;81.60;95019.72;5083966;28;20199;-74
2021/05/07 06:36:13;;;;;;;8.53;7.37;;;;;;;4.11;81.15;95027.38;5083955;28;20200;-75
2021/05/07 06:38:38;;;;;;;8.50;7.40;;;;;;;4.02;81.41;95035.81;5090103;28;20588;-75
2021/05/07 06:41:03;;;;;;;9.43;8.40;;;;;;;4.01;81.80;95040.13;5083754;28;20187;-74
2021/05/07 06:43:29;;;;;;;10.40;8.10;;;;;;;4.01;81.84;95037.56;5078034;28;20242;-74
2021/05/07 06:45:54;;;;;;;9.40;8.40;;;;;;;3.93;82.07;95042.47;5089969;28;20560;-74
2021/05/07 06:48:19;;;;;;;9.13;8.00;;;;;;;3.94;82.05;95046.69;5079387;28;20185;-75
2021/05/07 06:50:45;;;;;;;9.30;8.17;;;;;;;4.09;82.16;95052.38;5087872;28;20190;-76
2021/05/07 06:53:10;;;;;;;9.20;8.13;;;;;;;4.07;82.98;95060.22;5083474;28;20204;-75
2021/05/07 06:55:35;;;;;;;9.97;8.37;;;;;;;4.23;82.38;95067.53;5077720;28;20192;-75
2021/05/07 06:58:00;;;;;;;10.17;8.57;;;;;;;4.42;82.24;95072.06;5077848;28;20204;-76
2021/05/07 07:00:26;;;;;;;10.97;8.63;;;;;;;4.40;80.56;95076.47;5082505;28;20196;-76
2021/05/07 07:02:51;;;;;;;9.10;8.10;;;;;;;4.62;80.65;95078.97;5083494;28;20180;-75
2021/05/07 07:05:16;;;;;;;9.83;7.70;;;;;;;4.64;79.20;95084.81;5083065;28;20177;-76
2021/05/07 07:07:42;;;;;;;9.17;8.07;;;;;;;4.67;80.14;95086.31;5083969;28;20232;-75
2021/05/07 07:10:07;;;;;;;10.30;8.00;;;;;;;4.63;79.66;95090.91;5079880;28;20279;-75
2021/05/07 07:12:33;;;;;;;9.13;8.17;;;;;;;4.73;80.22;95090.97;5056959;28;20293;-75
2021/05/07 07:14:58;;;;;;;11.33;8.60;;;;;;;4.62;79.78;95088.47;5086169;28;20188;-75
2021/05/07 07:17:23;;;;;;;9.13;8.00;;;;;;;4.54;80.13;95091.63;5077732;28;20275;-75
2021/05/07 07:19:49;;;;;;;8.73;7.83;;;;;;;4.81;80.36;95104.03;5082877;28;20181;-75
2021/05/07 07:22:16;;;;;;;8.57;7.77;;;;;;;4.73;79.07;95096.13;5085655;28;20192;-75
2021/05/07 07:24:41;;;;;;;7.80;7.03;;;;;;;4.77;78.97;95103.50;5069814;28;20181;-75
2021/05/07 07:27:07;;;;;;;8.10;7.10;;;;;;;4.81;78.53;95101.47;5079987;28;20204;-75
2021/05/07 07:29:32;;;;;;;6.87;6.13;;;;;;;4.73;78.55;95114.13;5076280;28;20188;-75
2021/05/07 07:31:57;;;;;;;7.80;6.67;;;;;;;4.62;78.90;95115.00;5081395;28;20301;-75
2021/05/07 07:34:23;;;;;;;8.07;6.60;;;;;;;4.84;78.68;95124.38;5053279;28;20185;-75
2021/05/07 07:36:49;;;;;;;9.10;7.17;;;;;;;5.10;78.33;95127.41;5071760;28;20213;-75
2021/05/07 07:39:18;;;;;;;7.43;6.63;;;;;;;5.07;78.20;95130.25;5078610;28;20272;-75
2021/05/07 07:41:44;;;;;;;9.07;6.40;;;;;;;5.46;77.53;95131.31;5078211;28;20181;-76
2021/05/07 07:44:09;;;;;;;7.53;6.50;;;;;;;5.58;76.34;95127.75;5081303;28;20195;-76
2021/05/07 07:46:34;;;;;;;7.33;6.43;;;;;;;5.63;75.11;95135.06;5077545;28;20296;-75
2021/05/07 07:48:59;;;;;;;6.77;5.90;;;;;;;5.61;75.07;95139.53;5063940;28;20200;-75
2021/05/07 07:51:31;;;;;;;7.20;6.10;;;;;;;5.78;75.19;95143.28;5082044;28;20744;-76
2021/05/07 07:53:57;;;;;;;6.13;5.53;;;;;;;5.83;74.51;95154.84;5079988;28;20227;-75
2021/05/07 07:56:23;;;;;;;7.77;6.00;;;;;;;5.94;75.30;95152.22;5077542;28;20712;-75
2021/05/07 07:58:48;;;;;;;7.63;5.70;;;;;;;6.18;74.99;95153.66;5062987;28;20267;-75
2021/05/07 08:01:13;;;;;;;7.93;5.67;;;;;;;5.97;74.40;95156.28;5072245;28;20200;-76
2021/05/07 08:03:39;;;;;;;5.33;4.83;;;;;;;6.19;74.10;95163.06;5079063;28;20184;-76
2021/05/07 08:06:04;;;;;;;6.73;5.97;;;;;;;6.17;73.82;95167.50;5080149;28;20702;-75
2021/05/07 08:08:29;;;;;;;6.80;5.80;;;;;;;6.29;72.37;95175.97;5078539;28;20245;-75
2021/05/07 08:10:55;;;;;;;8.00;5.87;;;;;;;5.84;73.21;95182.25;5085964;28;20192;-74
2021/05/07 08:13:20;;;;;;;5.80;5.23;;;;;;;6.18;73.19;95179.44;5083654;28;20699;-74
2021/05/07 08:15:45;;;;;;;8.43;6.20;;;;;;;5.92;71.47;95190.19;5076813;28;20200;-72
2021/05/07 08:18:11;;;;;;;8.30;5.70;;;;;;;5.93;71.19;95191.00;5077802;28;20715;-73
2021/05/07 08:20:37;;;;;;;7.33;5.70;;;;;;;6.33;70.91;95196.19;5074438;28;20193;-74
2021/05/07 08:23:02;;;;;;;7.47;6.40;;;;;;;6.64;71.27;95196.19;5075410;28;20204;-73
2021/05/07 08:25:27;;;;;;;6.87;6.03;;;;;;;7.14;69.91;95198.69;5083139;28;20225;-74
2021/05/07 08:27:53;;;;;;;7.37;6.50;;;;;;;7.26;67.95;95205.38;5076051;28;20216;-74
2021/05/07 08:30:18;;;;;;;6.93;5.57;;;;;;;7.43;64.43;95203.88;5055696;28;20769;-75
2021/05/07 08:32:43;;;;;;;5.77;5.03;;;;;;;7.72;62.09;95198.66;5088886;28;20675;-74
2021/05/07 08:35:11;;;;;;;6.40;5.77;;;;;;;7.88;60.91;95209.25;5071848;28;20577;-76
2021/05/07 08:37:42;;;;;;;6.27;5.60;;;;;;;8.17;62.08;95210.00;5083821;28;20200;-77
2021/05/07 08:40:08;;;;;;;7.60;5.83;;;;;;;7.83;61.32;95214.84;5087838;28;20597;-77
2021/05/07 08:42:33;;;;;;;9.50;5.40;;;;;;;7.89;62.33;95224.63;5088180;28;20249;-77
2021/05/07 08:44:59;;;;;;;7.50;5.77;;;;;;;7.36;62.87;95232.00;5064432;28;20621;-77
2021/05/07 08:47:24;;;;;;;6.00;5.40;;;;;;;7.10;63.46;95242.84;5085371;28;20193;-76
2021/05/07 08:49:50;;;;;;;7.70;6.47;;;;;;;7.18;64.90;95243.97;5062339;28;20189;-76
2021/05/07 08:52:19;;;;;;;10.37;6.10;;;;;;;7.39;64.36;95254.97;5063107;28;20216;-75
2021/05/07 08:54:45;;;;;;;6.10;5.60;;;;;;;7.41;63.90;95252.25;5081258;28;20608;-75
2021/05/07 08:57:11;;;;;;;5.37;4.83;;;;;;;7.66;60.94;95252.53;5080784;28;20211;-76
2021/05/07 08:59:36;;;;;;;7.43;6.37;;;;;;;7.91;61.38;95260.69;5078045;28;20185;-75
2021/05/07 09:02:02;;;;;;;6.47;5.87;;;;;;;8.04;59.33;95263.81;5079122;28;20234;-76
2021/05/07 09:04:27;;;;;;;7.23;6.50;;;;;;;8.18;59.52;95268.53;5063741;28;20271;-76
2021/05/07 09:06:54;;;;;;;7.43;5.70;;;;;;;8.18;58.84;95263.34;5071972;28;20240;-76
2021/05/07 09:09:25;;;;;;;6.77;5.50;;;;;;;8.11;55.93;95264.84;5085314;28;20264;-77
2021/05/07 09:11:51;;;;;;;6.30;5.27;;;;;;;7.47;55.99;95273.22;5079886;28;20196;-76
2021/05/07 09:14:16;;;;;;;5.57;4.97;;;;;;;7.30;57.01;95273.88;5071528;28;20261;-74
2021/05/07 09:16:56;;;;;;;5.50;4.53;;;;;;;7.61;58.22;95283.16;5088505;28;20226;-76
2021/05/07 09:19:29;;;;;;;5.63;4.73;;;;;;;8.01;57.02;95284.75;5067803;28;20579;-76
2021/05/07 09:21:56;;;;;;;5.20;4.70;;;;;;;8.15;54.92;95280.94;5077783;28;20177;-76
2021/05/07 09:24:31;;;;;;;6.73;4.70;;;;;;;8.47;55.31;95284.00;5073789;28;20582;-76
2021/05/07 09:26:56;;;;;;;7.83;4.60;;;;;;;8.69;53.68;95282.03;5082163;28;20197;-77
2021/05/07 09:29:24;;;;;;;5.53;4.23;;;;;;;8.34;50.37;95298.19;5073943;28;20724;-77
2021/05/07 09:31:51;;;;;;;5.37;3.97;;;;;;;8.16;52.63;95296.31;5081855;28;20200;-76
2021/05/07 09:34:19;;;;;;;4.13;3.73;;;;;;;8.26;53.69;95298.06;5075688;28;20177;-75
2021/05/07 09:36:44;;;;;;;6.40;4.30;;;;;;;8.47;55.42;95303.88;5056614;28;20201;-75
2021/05/07 09:39:15;;;;;;;6.10;4.43;;;;;;;8.58;52.48;95302.91;5084031;28;20687;-76
2021/05/07 09:41:45;;;;;;;6.33;4.50;;;;;;;9.04;53.91;95299.44;5085956;28;20342;-76
2021/05/07 09:44:21;;;;;;;7.03;4.63;;;;;;;8.97;53.63;95312.16;5075299;28;20185;-76
2021/05/07 09:46:47;;;;;;;6.27;4.67;;;;;;;8.38;54.72;95320.25;5062682;28;20287;-78
2021/05/07 09:49:22;;;;;;;5.43;4.60;;;;;;;8.64;53.11;95313.50;5076237;28;20681;-77
2021/05/07 09:51:47;;;;;;;5.37;4.00;;;;;;;8.51;51.37;95318.19;5072723;28;20292;-76
2021/05/07 09:54:13;;;;;;;4.77;4.03;;;;;;;8.42;49.38;95319.03;5073424;28;20268;-76
2021/05/07 09:56:38;;;;;;;3.70;3.37;;;;;;;8.10;48.46;95329.66;5082542;28;20200;-76
2021/05/07 09:59:04;;;;;;;4.63;3.80;;;;;;;8.41;49.97;95335.50;5089073;28;20215;-75
2021/05/07 10:01:30;;;;;;;5.27;3.70;;;;;;;8.30;49.80;95339.00;5071551;28;20287;-75
2021/05/07 10:03:57;;;;;;;4.67;3.73;;;;;;;8.39;49.66;95338.25;5090872;28;20222;-75
2021/05/07 10:06:23;;;;;;;5.50;3.53;;;;;;;8.47;49.76;95342.69;5071121;28;20193;-76
2021/05/07 10:08:48;;;;;;;4.93;3.97;;;;;;;8.30;49.79;95348.56;5072568;28;20239;-75
2021/05/07 10:11:14;;;;;;;5.10;4.00;;;;;;;8.30;47.64;95353.72;5083438;28;20178;-75
2021/05/07 10:13:40;;;;;;;3.70;3.40;;;;;;;8.65;49.29;95347.97;5056763;28;20186;-76
2021/05/07 10:16:06;;;;;;;3.67;3.37;;;;;;;8.83;49.35;95350.63;5080453;28;20643;-77
2021/05/07 10:18:33;;;;;;;5.50;3.70;;;;;;;8.21;47.77;95365.72;5087176;28;20267;-76
2021/05/07 10:21:01;;;;;;;4.87;3.30;;;;;;;8.13;48.74;95361.25;5058603;28;20188;-78
2021/05/07 10:23:27;;;;;;;5.90;4.53;;;;;;;8.07;48.94;95366.16;5083317;28;20645;-78
2021/05/07 10:25:57;;;;;;;4.17;3.73;;;;;;;8.41;50.64;95366.56;5081943;28;20268;-78
2021/05/07 10:28:23;;;;;;;4.17;3.23;;;;;;;8.51;49.97;95372.53;5067132;28;20226;-78
2021/05/07 10:30:48;;;;;;;3.57;3.17;;;;;;;8.23;49.76;95385.34;5075678;28;20561;-75
2021/05/07 10:33:20;;;;;;;3.83;3.23;;;;;;;8.38;49.52;95387.53;5089625;28;20208;-76
2021/05/07 10:35:54;;;;;;;4.27;3.30;;;;;;;8.50;47.31;95381.25;5086607;28;20225;-76
2021/05/07 10:38:20;;;;;;;3.80;3.30;;;;;;;9.25;49.02;95382.91;5079269;28;20203;-76
2021/05/07 10:40:49;;;;;;;4.23;3.00;;;;;;;8.88;47.67;95369.97;5080736;28;20551;-76
2021/05/07 10:43:15;;;;;;;3.83;3.43;;;;;;;8.69;46.99;95386.38;5083551;28;20188;-76
2021/05/07 10:45:46;;;;;;;3.60;3.20;;;;;;;8.66;46.14;95384.09;5068515;28;20196;-75
2021/05/07 10:48:12;;;;;;;4.67;3.30;;;;;;;8.41;46.49;95387.25;5078519;28;20204;-75
2021/05/07 10:50:41;;;;;;;4.00;3.30;;;;;;;8.24;46.20;95391.31;5085674;28;20596;-75
2021/05/07 10:53:07;;;;;;;5.57;3.53;;;;;;;8.21;47.76;95389.00;5081140;28;20687;-77
2021/05/07 10:55:33;;;;;;;4.33;3.27;;;;;;;8.07;47.25;95390.25;5077242;28;20436;-74
2021/05/07 10:58:01;;;;;;;3.87;3.47;;;;;;;8.07;48.44;95394.59;5062012;28;20205;-74
2021/05/07 11:00:39;;;;;;;6.90;3.93;;;;;;;7.83;49.20;95387.22;5085981;28;20179;-76
2021/05/07 11:03:05;;;;;;;5.20;3.90;;;;;;;7.60;49.36;95399.59;5057004;28;20219;-77
2021/05/07 11:05:45;;;;;;;4.30;3.13;;;;;;;7.83;51.41;95392.38;5079053;28;20668;-76
2021/05/07 11:08:11;;;;;;;4.37;3.93;;;;;;;8.15;50.98;95394.72;5061837;28;20205;-76
2021/05/07 11:10:36;;;;;;;3.47;3.17;;;;;;;8.06;50.56;95408.47;5083846;28;20192;-76
2021/05/07 11:13:02;;;;;;;4.07;3.67;;;;;;;8.15;48.78;95400.72;5075204;28;20205;-76
2021/05/07 11:15:28;;;;;;;5.80;3.27;;;;;;;8.02;48.23;95407.91;5089963;28;20656;-76
2021/05/07 11:18:11;;;;;;;5.73;3.57;;;;;;;8.24;48.76;95417.19;5084618;28;20200;-75
2021/05/07 11:20:37;;;;;;;6.07;3.40;;;;;;;8.43;48.98;95413.81;5076081;28;20181;-76
2021/05/07 11:23:10;;;;;;;3.83;3.50;;;;;;;8.53;48.02;95417.19;5061502;28;20181;-76
2021/05/07 11:25:36;;;;;;;4.20;3.00;;;;;;;8.82;47.07;95417.13;5088541;28;20199;-76
2021/05/07 11:28:15;;;;;;;6.00;3.33;;;;;;;8.91;45.01;95415.50;5080941;28;20215;-76
2021/05/07 11:30:47;;;;;;;5.63;3.30;;;;;;;8.99;45.83;95418.19;5076469;28;20675;-77
2021/05/07 11:33:12;;;;;;;4.67;3.40;;;;;;;8.20;44.68;95413.22;5083297;28;20212;-76
2021/05/07 11:35:38;;;;;;;4.20;3.43;;;;;;;8.50;45.18;95407.13;5077279;28;20579;-77
2021/05/07 11:38:03;;;;;;;3.87;3.23;;;;;;;8.75;46.12;95422.09;5080350;28;20213;-77
2021/05/07 11:40:35;;;;;;;3.93;3.33;;;;;;;9.02;45.03;95423.94;5085328;28;20188;-77
2021/05/07 11:43:09;;;;;;;5.57;3.33;;;;;;;9.25;43.01;95418.38;5086964;28;20550;-77